Time;durP1;ratioP1;P1;durP2;ratioP2;P2;SDS_P1;SDS_P2;PMS_P1;PMS_P2;Temp;Humidity;BMP_temperature;BMP_pressure;BME280_temperature;BME280_humidity;BME280_pressure;Samples;Min_cycle;Max_cycle;Signal;HPM_P1;HPM_P2
2024/01/14 00:00:00;;;;;;;42.50;21.07;;;-2.40;99.90;;;;;;5035208;28;20956;-77
2024/01/14 00:02:35;;;;;;;39.73;21.00;;;-2.30;99.90;;;;;;5035035;28;20478;-77
2024/01/14 00:05:07;;;;;;;40.70;21.20;;;-2.30;99.90;;;;;;5035577;28;20819;-78
2024/01/14 00:07:39;;;;;;;37.77;20.97;;;-2.30;99.90;;;;;;5035456;28;20937;-77
2024/01/14 00:10:11;;;;;;;39.93;21.80;;;-2.40;99.90;;;;;;5035791;28;20474;-78
2024/01/14 00:12:44;;;;;;;40.87;20.03;;;-2.30;99.90;;;;;;5035737;28;20536;-76
2024/01/14 00:15:22;;;;;;;42.93;22.47;;;-2.60;99.90;;;;;;5034959;28;20478;-77
2024/01/14 00:18:01;;;;;;;38.80;21.57;;;-2.40;99.90;;;;;;5034859;28;20466;-78
2024/01/14 00:20:29;;;;;;;40.83;21.60;;;-2.40;99.90;;;;;;5034595;28;20450;-77
2024/01/14 00:23:01;;;;;;;37.70;22.87;;;-2.40;99.90;;;;;;5035107;28;20467;-76
2024/01/14 00:25:31;;;;;;;41.17;20.13;;;-2.40;99.90;;;;;;5035538;28;20533;-77
2024/01/14 00:28:03;;;;;;;36.73;20.20;;;-2.40;99.90;;;;;;5035409;28;20470;-76
2024/01/14 00:30:35;;;;;;;38.93;23.07;;;-2.50;99.90;;;;;;5034376;28;20470;-77
2024/01/14 00:33:04;;;;;;;43.27;23.40;;;-2.50;99.90;;;;;;5034351;28;20920;-76
2024/01/14 00:35:37;;;;;;;38.37;20.43;;;-2.40;99.90;;;;;;5034139;28;20504;-77
2024/01/14 00:38:07;;;;;;;41.70;22.20;;;-2.10;99.90;;;;;;5033641;28;21055;-78
2024/01/14 00:40:38;;;;;;;37.77;21.33;;;-2.30;99.90;;;;;;5034077;28;20439;-77
2024/01/14 00:43:16;;;;;;;39.63;22.20;;;-2.00;99.90;;;;;;5034456;28;20488;-79
2024/01/14 00:45:54;;;;;;;38.20;21.70;;;-2.20;99.90;;;;;;5034119;28;20474;-77
2024/01/14 00:48:29;;;;;;;40.40;20.83;;;-2.10;99.90;;;;;;5035611;28;20541;-76
2024/01/14 00:51:00;;;;;;;39.27;21.90;;;-2.10;99.90;;;;;;5034252;28;20457;-77
2024/01/14 00:53:39;;;;;;;38.13;21.80;;;-2.20;99.90;;;;;;5033684;28;20517;-76
2024/01/14 00:56:11;;;;;;;39.17;22.97;;;-2.20;99.90;;;;;;5033708;28;20430;-77
2024/01/14 00:58:50;;;;;;;38.57;22.50;;;-2.20;99.90;;;;;;5033583;28;20508;-76
2024/01/14 01:01:24;;;;;;;36.50;21.57;;;-2.30;99.90;;;;;;5032714;28;20512;-78
2024/01/14 01:03:56;;;;;;;42.47;23.50;;;-2.20;99.90;;;;;;5035113;28;20473;-77
2024/01/14 01:06:34;;;;;;;41.40;22.03;;;-2.10;99.90;;;;;;5033609;28;20827;-76
2024/01/14 01:09:06;;;;;;;39.67;21.87;;;-2.10;99.90;;;;;;5033188;28;20473;-75
2024/01/14 01:11:38;;;;;;;42.13;20.90;;;-2.10;99.90;;;;;;5032715;28;20475;-75
2024/01/14 01:14:14;;;;;;;43.17;22.70;;;-2.50;99.90;;;;;;5032900;28;20455;-77
2024/01/14 01:16:46;;;;;;;40.83;22.70;;;-2.10;99.90;;;;;;5035468;28;20431;-76
2024/01/14 01:19:17;;;;;;;42.60;23.50;;;-2.20;99.90;;;;;;5034489;28;20526;-76
2024/01/14 01:21:51;;;;;;;39.43;21.87;;;-2.20;99.90;;;;;;5033724;28;20526;-77
2024/01/14 01:24:24;;;;;;;35.93;21.53;;;-2.30;99.90;;;;;;5033629;28;20462;-77
2024/01/14 01:27:01;;;;;;;40.23;23.30;;;-2.40;99.90;;;;;;5034187;28;20454;-75
2024/01/14 01:29:36;;;;;;;39.73;22.80;;;-2.20;99.90;;;;;;5034066;28;20478;-77
2024/01/14 01:32:11;;;;;;;43.73;22.30;;;-2.10;99.90;;;;;;5033898;28;20540;-77
2024/01/14 01:34:57;;;;;;;42.43;23.60;;;-2.10;99.90;;;;;;5033325;28;20512;-76
2024/01/14 01:37:48;;;;;;;;;;;;;;;;;;;;;
2024/01/14 01:43:32;;;;;;;47.07;23.63;;;-2.00;99.90;;;;;;5030797;28;21079;-77
2024/01/14 01:46:17;;;;;;;45.83;22.50;;;-2.00;99.90;;;;;;5034560;28;20447;-76
2024/01/14 01:52:04;;;;;;;42.40;21.97;;;-1.80;99.90;;;;;;4987635;28;20568;-75
2024/01/14 01:54:37;;;;;;;46.00;22.90;;;-1.90;99.90;;;;;;5036620;28;20446;-77
2024/01/14 01:57:23;;;;;;;44.93;24.27;;;-1.90;99.90;;;;;;5051969;28;20481;-77
2024/01/14 02:00:17;;;;;;;45.63;24.03;;;-2.00;99.90;;;;;;5050604;28;20519;-76
2024/01/14 02:02:57;;;;;;;41.93;24.50;;;-2.00;99.90;;;;;;5067449;28;20470;-75
2024/01/14 02:05:39;;;;;;;45.57;22.87;;;-1.90;99.90;;;;;;5071425;28;20477;-76
2024/01/14 02:08:24;;;;;;;37.10;22.40;;;-2.00;99.90;;;;;;5068231;28;20488;-77
2024/01/14 02:11:08;;;;;;;42.90;22.80;;;-2.00;99.90;;;;;;5069168;28;20470;-76
2024/01/14 02:13:50;;;;;;;48.73;24.07;;;-2.00;99.90;;;;;;5069149;28;20461;-75
2024/01/14 02:16:26;;;;;;;48.00;24.93;;;-2.10;99.90;;;;;;5050161;28;20540;-76
2024/01/14 02:19:25;;;;;;;47.93;23.70;;;-2.10;99.90;;;;;;5043430;28;20521;-76
2024/01/14 02:28:29;;;;;;;45.30;22.97;;;-2.10;99.90;;;;;;5046043;28;20508;-78
2024/01/14 02:31:19;;;;;;;42.33;22.50;;;-2.50;99.90;;;;;;5045821;28;20481;-78
2024/01/14 02:34:06;;;;;;;49.33;23.40;;;-2.30;99.90;;;;;;5050768;28;20457;-77
2024/01/14 02:36:42;;;;;;;47.23;25.37;;;-2.20;99.90;;;;;;5059084;28;20469;-77
2024/01/14 02:39:23;;;;;;;44.93;22.67;;;-2.20;99.90;;;;;;5051184;28;20457;-78
2024/01/14 02:41:59;;;;;;;46.63;23.70;;;-2.00;99.90;;;;;;5063227;28;20503;-78
2024/01/14 02:44:31;;;;;;;46.00;22.83;;;-2.20;99.90;;;;;;5050603;28;20477;-77
2024/01/14 02:47:09;;;;;;;41.77;23.10;;;-2.40;99.90;;;;;;5042777;28;20499;-77
2024/01/14 02:49:46;;;;;;;44.60;21.90;;;-2.40;99.90;;;;;;5054636;28;20477;-77
2024/01/14 02:52:32;;;;;;;41.67;23.23;;;-2.50;99.90;;;;;;5054140;28;20469;-78
2024/01/14 02:55:05;;;;;;;46.27;23.57;;;-2.50;99.90;;;;;;5046407;28;20478;-77
2024/01/14 02:57:41;;;;;;;51.50;24.13;;;-2.50;99.90;;;;;;5042415;28;20458;-77
2024/01/14 03:00:14;;;;;;;43.97;22.90;;;-2.60;99.90;;;;;;5051153;28;20454;-76
2024/01/14 03:02:46;;;;;;;52.00;24.63;;;-2.50;99.90;;;;;;5054395;28;20469;-77
2024/01/14 03:05:19;;;;;;;42.23;20.87;;;-2.70;99.90;;;;;;5052871;28;20449;-77
2024/01/14 03:07:55;;;;;;;49.27;23.37;;;-2.50;99.90;;;;;;5044465;28;20446;-77
2024/01/14 03:10:41;;;;;;;46.43;22.70;;;-2.50;99.90;;;;;;5034578;28;20470;-77
2024/01/14 03:13:19;;;;;;;37.80;21.57;;;-2.80;99.90;;;;;;5034855;28;20477;-77
2024/01/14 03:15:54;;;;;;;50.60;23.70;;;-2.50;99.90;;;;;;5034228;28;20475;-77
2024/01/14 03:18:31;;;;;;;46.13;23.23;;;-2.50;99.90;;;;;;5033653;28;20458;-77
2024/01/14 03:21:11;;;;;;;44.27;22.93;;;-2.50;99.90;;;;;;5033519;28;20442;-78
2024/01/14 03:23:54;;;;;;;43.03;22.33;;;-2.50;99.90;;;;;;5033556;28;20548;-76
2024/01/14 03:26:36;;;;;;;49.43;22.53;;;-2.50;99.90;;;;;;5036045;28;20431;-78
2024/01/14 03:29:11;;;;;;;44.63;21.90;;;-2.50;99.90;;;;;;5036054;28;20455;-77
2024/01/14 03:31:53;;;;;;;41.20;21.40;;;-2.70;99.90;;;;;;5036106;28;20840;-77
2024/01/14 03:34:38;;;;;;;50.43;22.93;;;-2.70;99.90;;;;;;5035995;28;20512;-76
2024/01/14 03:37:19;;;;;;;40.20;21.47;;;-2.60;99.90;;;;;;5036045;28;20450;-77
2024/01/14 03:39:52;;;;;;;40.13;20.70;;;-2.70;99.90;;;;;;5036321;28;20457;-77
2024/01/14 03:42:46;;;;;;;49.00;22.07;;;-2.70;99.90;;;;;;5035955;28;20459;-78
2024/01/14 03:45:39;;;;;;;43.10;22.37;;;-2.90;99.90;;;;;;5035902;28;20542;-78
2024/01/14 03:48:17;;;;;;;53.20;24.73;;;-2.70;99.90;;;;;;5036830;28;20446;-78
2024/01/14 03:50:51;;;;;;;48.30;23.53;;;-2.70;99.90;;;;;;5036930;28;20477;-77
2024/01/14 03:53:25;;;;;;;46.90;23.40;;;-2.60;99.90;;;;;;5036260;28;20470;-77
2024/01/14 03:56:05;;;;;;;50.37;23.43;;;-2.70;99.90;;;;;;5036186;28;20454;-77
2024/01/14 03:58:36;;;;;;;53.33;23.23;;;-2.60;99.90;;;;;;5034713;28;20799;-76
2024/01/14 04:01:13;;;;;;;46.77;25.33;;;-2.60;99.90;;;;;;5034957;28;20418;-78
2024/01/14 04:03:52;;;;;;;58.53;26.27;;;-2.70;99.90;;;;;;5035041;28;20833;-78
2024/01/14 04:06:27;;;;;;;60.83;28.23;;;-2.70;99.90;;;;;;5034977;28;20804;-77
2024/01/14 04:11:52;;;;;;;49.10;25.20;;;-2.70;99.90;;;;;;5032249;28;20986;-78
2024/01/14 04:14:29;;;;;;;53.37;25.20;;;-2.70;99.90;;;;;;5035210;28;20458;-78
2024/01/14 04:17:08;;;;;;;52.77;23.20;;;-2.80;99.90;;;;;;5034551;28;20546;-77
2024/01/14 04:19:46;;;;;;;42.83;22.60;;;-2.90;99.90;;;;;;5034306;28;20450;-78
2024/01/14 04:22:34;;;;;;;41.73;20.80;;;-3.00;99.90;;;;;;5035638;28;20561;-77
2024/01/14 04:25:25;;;;;;;49.03;21.77;;;-3.00;99.90;;;;;;5035702;28;20466;-77
2024/01/14 04:27:59;;;;;;;51.57;23.93;;;-3.20;99.90;;;;;;5036336;28;20458;-78
2024/01/14 04:30:39;;;;;;;49.87;23.00;;;-2.90;99.90;;;;;;5035652;28;20554;-77
2024/01/14 04:33:14;;;;;;;47.90;22.60;;;-2.80;99.90;;;;;;5035043;28;20909;-78
2024/01/14 04:35:49;;;;;;;46.40;21.57;;;-2.90;99.90;;;;;;5034308;28;20565;-78
2024/01/14 04:38:21;;;;;;;43.60;20.50;;;-3.00;99.90;;;;;;5035137;28;20448;-78
2024/01/14 04:41:05;;;;;;;;;;;;;;;;;;;;;
2024/01/14 04:44:01;;;;;;;45.77;22.20;;;-2.90;99.90;;;;;;5034668;28;20962;-78
2024/01/14 04:46:48;;;;;;;41.97;22.20;;;-3.00;99.90;;;;;;5034988;28;20452;-77
2024/01/14 04:49:25;;;;;;;42.30;20.87;;;-2.90;99.90;;;;;;5035601;28;20477;-76
2024/01/14 04:52:01;;;;;;;47.13;21.50;;;-2.90;99.90;;;;;;5036039;28;20559;-77
2024/01/14 04:54:43;;;;;;;39.90;19.60;;;-2.90;99.90;;;;;;5035499;28;20457;-77
2024/01/14 04:57:20;;;;;;;44.90;21.60;;;-2.80;99.90;;;;;;5035637;28;20462;-77
2024/01/14 04:59:57;;;;;;;43.97;22.20;;;-2.80;99.90;;;;;;5036695;28;20458;-78
2024/01/14 05:02:25;;;;;;;45.23;23.93;;;-3.00;99.90;;;;;;5051754;28;20545;-77
2024/01/14 05:05:01;;;;;;;45.03;22.37;;;-2.90;99.90;;;;;;5051881;28;20453;-76
2024/01/14 05:07:57;;;;;;;43.37;23.77;;;-2.90;99.90;;;;;;5052022;28;20510;-76
2024/01/14 05:10:35;;;;;;;50.90;23.07;;;-2.90;99.90;;;;;;5052202;28;20504;-78
2024/01/14 05:13:15;;;;;;;42.07;21.93;;;-2.90;99.90;;;;;;5053874;28;20505;-78
2024/01/14 05:16:08;;;;;;;44.47;22.00;;;-3.10;99.90;;;;;;5054000;28;20453;-77
2024/01/14 05:21:39;;;;;;;42.83;20.17;;;-3.20;99.90;;;;;;5046532;28;20838;-78
2024/01/14 05:24:13;;;;;;;35.80;17.73;;;-3.20;99.90;;;;;;5050219;28;20461;-77
2024/01/14 05:26:42;;;;;;;38.07;19.83;;;-3.20;99.90;;;;;;5050351;28;20451;-77
2024/01/14 05:29:14;;;;;;;38.93;19.93;;;-3.20;99.90;;;;;;5037772;28;20943;-77
2024/01/14 05:31:49;;;;;;;46.13;21.87;;;-3.30;99.90;;;;;;5035777;28;20556;-77
2024/01/14 05:34:34;;;;;;;34.37;20.43;;;-3.30;99.90;;;;;;5036623;28;20508;-77
2024/01/14 05:37:16;;;;;;;39.93;20.87;;;-3.30;99.90;;;;;;5036484;28;20450;-79
2024/01/14 05:40:04;;;;;;;40.33;21.60;;;-3.30;99.90;;;;;;5035884;28;20542;-76
2024/01/14 05:42:44;;;;;;;48.83;22.90;;;-3.30;99.90;;;;;;5035377;28;20513;-77
2024/01/14 05:45:17;;;;;;;45.00;20.80;;;-3.30;99.90;;;;;;5036115;28;20460;-77
2024/01/14 05:48:08;;;;;;;50.47;23.87;;;-3.60;99.90;;;;;;5036219;28;20539;-77
2024/01/14 05:50:52;;;;;;;38.97;21.20;;;-3.30;99.90;;;;;;5033232;28;20525;-76
2024/01/14 05:53:31;;;;;;;46.07;23.17;;;-3.60;99.90;;;;;;5033275;28;20478;-78
2024/01/14 05:56:08;;;;;;;47.97;22.80;;;-3.50;99.90;;;;;;5031964;28;20997;-79
2024/01/14 05:58:41;;;;;;;47.23;24.27;;;-3.10;99.90;;;;;;5033095;28;20508;-77
2024/01/14 06:01:16;;;;;;;44.73;22.77;;;-3.00;99.90;;;;;;5037139;28;20537;-77
2024/01/14 06:03:49;;;;;;;46.57;22.13;;;-3.00;99.90;;;;;;5037027;28;20450;-77
2024/01/14 06:06:29;;;;;;;47.03;22.50;;;-3.00;99.90;;;;;;5051337;28;20477;-76
2024/01/14 06:09:06;;;;;;;47.87;22.20;;;-3.00;99.90;;;;;;5058762;28;20445;-76
2024/01/14 06:11:42;;;;;;;44.17;24.17;;;-3.10;99.90;;;;;;5057429;28;20512;-77
2024/01/14 06:14:20;;;;;;;51.17;24.60;;;-3.00;99.90;;;;;;5057235;28;20457;-76
2024/01/14 06:16:52;;;;;;;51.57;24.30;;;-3.00;99.90;;;;;;5056849;28;20469;-77
2024/01/14 06:19:42;;;;;;;42.90;23.40;;;-2.90;99.90;;;;;;5060896;28;20441;-76
2024/01/14 06:22:16;;;;;;;41.90;20.70;;;-3.20;99.90;;;;;;5061153;28;20472;-77
2024/01/14 06:24:59;;;;;;;45.97;21.83;;;-3.10;99.90;;;;;;5060444;28;20478;-78
2024/01/14 06:27:41;;;;;;;37.20;20.60;;;-3.10;99.90;;;;;;5055345;28;20455;-77
2024/01/14 06:30:18;;;;;;;42.07;23.23;;;-3.20;99.90;;;;;;5054227;28;20450;-78
2024/01/14 06:33:02;;;;;;;42.70;20.97;;;-3.10;99.90;;;;;;5054950;28;20963;-78
2024/01/14 06:35:41;;;;;;;44.50;22.30;;;-3.00;99.90;;;;;;5054872;28;20477;-77
2024/01/14 06:38:18;;;;;;;42.80;20.93;;;-3.00;99.90;;;;;;5055811;28;20456;-76
2024/01/14 06:41:05;;;;;;;38.37;18.90;;;-3.00;99.90;;;;;;5059324;28;20459;-78
2024/01/14 06:46:33;;;;;;;45.30;21.40;;;-3.20;99.90;;;;;;5059724;28;20449;-78
2024/01/14 06:49:12;;;;;;;41.23;20.60;;;-3.50;99.90;;;;;;5061245;28;20508;-79
2024/01/14 06:51:58;;;;;;;36.33;19.17;;;-3.10;99.90;;;;;;5059673;28;20488;-77
2024/01/14 06:54:37;;;;;;;39.03;20.03;;;-3.10;99.90;;;;;;5058851;28;20459;-77
2024/01/14 07:00:15;;;;;;;44.67;22.83;;;-3.20;99.90;;;;;;5056585;28;20479;-79
2024/01/14 07:02:54;;;;;;;38.40;19.53;;;-3.20;99.90;;;;;;5059587;28;20564;-77
2024/01/14 07:05:28;;;;;;;46.83;22.57;;;-3.20;99.90;;;;;;5060302;28;20455;-78
2024/01/14 07:08:09;;;;;;;39.43;21.27;;;-3.40;99.90;;;;;;5061933;28;20429;-77
2024/01/14 07:11:01;;;;;;;41.43;21.17;;;-3.20;99.90;;;;;;5062445;28;20449;-77
2024/01/14 07:13:48;;;;;;;45.73;22.07;;;-3.20;99.90;;;;;;5061876;28;20466;-78
2024/01/14 07:16:25;;;;;;;46.47;22.20;;;-3.20;99.90;;;;;;5061746;28;20889;-78
2024/01/14 07:18:54;;;;;;;40.70;19.40;;;-3.20;99.90;;;;;;5060660;28;20455;-78
2024/01/14 07:21:31;;;;;;;40.77;19.63;;;-3.20;99.90;;;;;;5059444;28;20447;-78
2024/01/14 07:24:11;;;;;;;42.10;20.93;;;-3.20;99.90;;;;;;5058598;28;20491;-79
2024/01/14 07:26:48;;;;;;;44.53;23.10;;;-3.50;99.90;;;;;;5057087;28;20464;-80
2024/01/14 07:29:22;;;;;;;49.20;23.17;;;-3.20;99.90;;;;;;5056515;28;20454;-77
2024/01/14 07:31:55;;;;;;;46.90;24.63;;;-3.20;99.90;;;;;;5055986;28;20986;-78
2024/01/14 07:34:36;;;;;;;44.23;22.70;;;-3.20;99.90;;;;;;5056061;28;20557;-78
2024/01/14 07:37:13;;;;;;;52.20;22.90;;;-3.10;99.90;;;;;;5055254;28;20453;-78
2024/01/14 07:39:49;;;;;;;49.47;24.33;;;-3.10;99.90;;;;;;5055667;28;20895;-78
2024/01/14 07:42:21;;;;;;;49.97;23.93;;;-3.00;99.90;;;;;;5055011;28;20932;-79
2024/01/14 07:44:56;;;;;;;44.60;22.97;;;-2.80;99.90;;;;;;5055035;28;20469;-76
2024/01/14 07:47:33;;;;;;;42.47;19.87;;;-3.00;99.90;;;;;;5054863;28;20442;-78
2024/01/14 07:50:07;;;;;;;42.57;20.80;;;-3.00;99.90;;;;;;5056462;28;20457;-77
2024/01/14 07:52:38;;;;;;;42.40;21.73;;;-3.00;99.90;;;;;;5060129;28;20482;-78
2024/01/14 07:55:16;;;;;;;43.07;21.60;;;-3.00;99.90;;;;;;5059359;28;20436;-78
2024/01/14 07:57:55;;;;;;;39.90;23.60;;;-3.00;99.90;;;;;;5060248;28;20449;-78
2024/01/14 08:00:43;;;;;;;46.60;23.10;;;-2.70;99.90;;;;;;5059581;28;20457;-77
2024/01/14 08:03:21;;;;;;;51.27;23.60;;;-2.70;99.90;;;;;;5063104;28;20649;-76
2024/01/14 08:05:56;;;;;;;42.23;22.33;;;-2.20;99.90;;;;;;5052652;28;20438;-80
2024/01/14 08:08:43;;;;;;;48.33;23.97;;;-2.30;99.90;;;;;;5044315;28;21034;-77
2024/01/14 08:11:14;;;;;;;49.83;25.70;;;-2.50;99.90;;;;;;5043008;28;20553;-78
2024/01/14 08:13:50;;;;;;;41.80;23.67;;;-2.60;99.90;;;;;;5046356;28;20455;-77
2024/01/14 08:16:38;;;;;;;45.60;23.40;;;-2.60;99.90;;;;;;5046426;28;20855;-77
2024/01/14 08:19:13;;;;;;;45.63;23.80;;;-2.60;99.90;;;;;;5043251;28;20476;-78
2024/01/14 08:21:55;;;;;;;43.93;20.47;;;-2.50;99.90;;;;;;5043967;28;20474;-78
2024/01/14 08:24:22;;;;;;;48.97;25.23;;;-2.40;99.90;;;;;;5046012;28;20466;-77
2024/01/14 08:26:54;;;;;;;42.80;22.90;;;-2.40;99.90;;;;;;5043492;28;20454;-78
2024/01/14 08:29:30;;;;;;;40.87;21.90;;;-2.60;99.90;;;;;;5042972;28;20481;-79
2024/01/14 08:32:10;;;;;;;38.87;22.27;;;-2.50;99.90;;;;;;5041025;28;20489;-78
2024/01/14 08:34:47;;;;;;;41.30;22.50;;;-2.60;99.90;;;;;;5043351;28;20457;-78
2024/01/14 08:37:19;;;;;;;44.90;22.23;;;-2.50;99.90;;;;;;5045649;28;20465;-78
2024/01/14 08:39:51;;;;;;;50.27;25.10;;;-2.50;99.90;;;;;;5046896;28;20410;-78
2024/01/14 08:45:28;;;;;;;41.40;23.23;;;-2.50;99.90;;;;;;5044291;28;20875;-78
2024/01/14 08:48:07;;;;;;;45.33;24.53;;;-2.40;99.90;;;;;;5046162;28;20439;-78
2024/01/14 08:50:39;;;;;;;43.90;24.57;;;-2.30;99.90;;;;;;5043866;28;20450;-79
2024/01/14 08:53:18;;;;;;;41.77;23.77;;;-2.20;99.90;;;;;;5041496;28;20887;-78
2024/01/14 08:55:54;;;;;;;43.77;22.33;;;-2.00;99.90;;;;;;5039554;28;20522;-78
2024/01/14 09:01:19;;;;;;;44.30;22.90;;;-2.00;99.90;;;;;;5042919;28;20478;-78
2024/01/14 09:04:02;;;;;;;42.00;25.40;;;-1.90;99.90;;;;;;5043522;28;20450;-79
2024/01/14 09:06:44;;;;;;;40.50;22.67;;;-1.80;99.90;;;;;;5058038;28;20468;-78
2024/01/14 09:09:20;;;;;;;40.37;22.07;;;-1.80;99.90;;;;;;5060077;28;20529;-79
2024/01/14 09:11:57;;;;;;;45.67;22.83;;;-1.70;99.90;;;;;;5064909;28;20827;-79
2024/01/14 09:14:32;;;;;;;37.60;23.70;;;-1.90;99.90;;;;;;5063833;28;20515;-79
2024/01/14 09:17:18;;;;;;;42.47;23.10;;;-1.50;99.90;;;;;;5068304;28;20449;-80
2024/01/14 09:20:00;;;;;;;40.57;23.10;;;-1.50;99.90;;;;;;5065805;28;20449;-79
2024/01/14 09:22:35;;;;;;;38.67;22.40;;;-1.30;99.90;;;;;;5065166;28;20499;-77
2024/01/14 09:25:21;;;;;;;42.90;22.47;;;-1.40;99.90;;;;;;5067607;28;20457;-79
2024/01/14 09:28:19;;;;;;;46.87;23.87;;;-1.30;99.90;;;;;;5069665;28;20449;-78
2024/01/14 09:31:09;;;;;;;42.50;23.97;;;-1.10;99.90;;;;;;5048069;28;20473;-79
2024/01/14 09:33:46;;;;;;;44.63;24.23;;;-1.20;99.90;;;;;;5064588;28;20974;-77
2024/01/14 09:36:22;;;;;;;43.10;22.30;;;-1.20;99.90;;;;;;5062790;28;20445;-80
2024/01/14 09:38:53;;;;;;;45.50;22.33;;;-1.30;99.90;;;;;;5062594;28;20453;-77
2024/01/14 09:41:34;;;;;;;39.13;23.50;;;-1.20;99.90;;;;;;5064117;28;20449;-77
2024/01/14 09:44:20;;;;;;;41.17;24.80;;;-1.20;99.90;;;;;;5064708;28;20445;-80
2024/01/14 09:47:04;;;;;;;41.03;23.53;;;-1.00;99.90;;;;;;5066107;28;20464;-78
2024/01/14 09:49:41;;;;;;;40.00;24.80;;;-0.70;99.90;;;;;;5066733;28;20583;-77
2024/01/14 09:52:23;;;;;;;42.80;24.40;;;-0.50;99.90;;;;;;5066790;28;20538;-78
2024/01/14 09:55:10;;;;;;;40.60;23.10;;;-0.60;99.90;;;;;;5067992;28;20449;-79
2024/01/14 09:57:50;;;;;;;40.40;24.00;;;-0.50;99.90;;;;;;5064535;28;20464;-78
2024/01/14 10:00:26;;;;;;;37.30;24.23;;;-0.40;99.90;;;;;;5062359;28;20538;-79
2024/01/14 10:03:00;;;;;;;42.10;23.77;;;-0.40;99.90;;;;;;5061943;28;20562;-78
2024/01/14 10:05:37;;;;;;;45.13;24.50;;;-0.20;99.90;;;;;;5053043;28;20442;-78
2024/01/14 10:08:16;;;;;;;40.30;23.97;;;-0.10;99.90;;;;;;5038578;28;20454;-79
2024/01/14 10:11:08;;;;;;;39.10;22.60;;;0.20;99.90;;;;;;5040000;28;20473;-78
2024/01/14 10:13:52;;;;;;;44.70;25.20;;;0.30;99.90;;;;;;5038753;28;20508;-80
2024/01/14 10:16:27;;;;;;;39.40;22.97;;;0.40;99.90;;;;;;5039690;28;20636;-78
2024/01/14 10:19:07;;;;;;;41.40;23.20;;;0.40;99.90;;;;;;5039277;28;20462;-80
2024/01/14 10:21:53;;;;;;;34.40;22.30;;;0.60;99.90;;;;;;5039164;28;20473;-78
2024/01/14 10:24:53;;;;;;;40.10;23.33;;;0.80;99.90;;;;;;5038441;28;20540;-78
2024/01/14 10:27:31;;;;;;;45.27;23.33;;;0.90;99.90;;;;;;5040316;28;20455;-79
2024/01/14 10:30:05;;;;;;;41.60;23.33;;;0.90;99.90;;;;;;5041158;28;20450;-77
2024/01/14 10:32:39;;;;;;;37.83;24.50;;;1.10;99.90;;;;;;5040473;28;20515;-78
2024/01/14 10:35:17;;;;;;;40.23;22.93;;;1.00;99.90;;;;;;5041831;28;20457;-79
2024/01/14 10:37:54;;;;;;;43.43;23.80;;;1.10;99.90;;;;;;5041891;28;20461;-78
2024/01/14 10:40:31;;;;;;;37.27;23.37;;;1.20;99.90;;;;;;5041288;28;20473;-79
2024/01/14 10:43:08;;;;;;;41.57;25.03;;;1.30;99.90;;;;;;5041734;28;20457;-78
2024/01/14 10:45:40;;;;;;;37.00;21.60;;;1.20;99.90;;;;;;5042997;28;20478;-79
2024/01/14 10:48:29;;;;;;;37.87;23.03;;;1.10;99.90;;;;;;5042103;28;20450;-81
2024/01/14 10:51:05;;;;;;;40.00;22.60;;;1.20;99.90;;;;;;5023736;28;20458;-79
2024/01/14 10:53:52;;;;;;;45.10;23.70;;;1.20;99.90;;;;;;5043115;28;20570;-78
2024/01/14 10:56:46;;;;;;;;;;;;;;;;;;;;;
2024/01/14 10:59:25;;;;;;;40.00;23.60;;;1.80;99.90;;;;;;5051993;28;20796;-79
2024/01/14 11:05:04;;;;;;;37.23;24.37;;;2.20;99.90;;;;;;5056707;28;20438;-78
2024/01/14 11:07:40;;;;;;;40.73;26.10;;;2.50;99.90;;;;;;5063625;28;20507;-78
2024/01/14 11:10:33;;;;;;;37.33;22.77;;;2.70;99.90;;;;;;5062778;28;20634;-78
2024/01/14 11:13:27;;;;;;;41.30;24.10;;;2.80;99.90;;;;;;5049262;28;20894;-78
2024/01/14 11:16:08;;;;;;;35.90;23.10;;;2.80;99.90;;;;;;5055861;28;20519;-78
2024/01/14 11:18:47;;;;;;;35.50;23.77;;;2.80;99.90;;;;;;5062017;28;20459;-78
2024/01/14 11:21:29;;;;;;;38.63;24.37;;;3.10;99.90;;;;;;5054157;28;20538;-80
2024/01/14 11:23:58;;;;;;;37.73;23.43;;;3.30;99.90;;;;;;5044057;28;20968;-79
2024/01/14 11:26:33;;;;;;;44.03;24.87;;;3.40;99.90;;;;;;5058284;28;20471;-77
2024/01/14 11:29:15;;;;;;;38.30;23.30;;;3.60;99.90;;;;;;5059967;28;20872;-78
2024/01/14 11:32:13;;;;;;;36.30;24.10;;;3.70;99.90;;;;;;5059018;28;20479;-78
2024/01/14 11:35:10;;;;;;;37.13;24.70;;;3.90;99.90;;;;;;5061561;28;20767;-77
2024/01/14 11:37:52;;;;;;;37.90;23.23;;;3.90;99.90;;;;;;5059760;28;20873;-77
2024/01/14 11:40:44;;;;;;;38.07;23.93;;;4.10;99.90;;;;;;5057229;28;20458;-78
2024/01/14 11:43:28;;;;;;;38.10;23.33;;;4.00;99.90;;;;;;5051882;28;20483;-79
2024/01/14 11:46:06;;;;;;;41.83;23.67;;;3.80;99.90;;;;;;5044157;28;20478;-79
2024/01/14 11:48:44;;;;;;;42.47;24.83;;;4.10;99.90;;;;;;5047431;28;20454;-77
2024/01/14 11:51:22;;;;;;;41.60;25.20;;;4.20;99.90;;;;;;5056625;28;20485;-77
2024/01/14 11:53:58;;;;;;;35.30;23.40;;;4.30;99.90;;;;;;5049809;28;20643;-76
2024/01/14 11:56:37;;;;;;;39.43;24.60;;;4.20;99.90;;;;;;5048004;28;20458;-78
2024/01/14 11:59:09;;;;;;;34.60;22.43;;;3.30;99.90;;;;;;5049681;28;20451;-79
2024/01/14 12:01:40;;;;;;;38.90;23.80;;;3.90;99.90;;;;;;5055883;28;20508;-77
2024/01/14 12:04:14;;;;;;;40.53;24.73;;;3.90;99.90;;;;;;5060263;28;21176;-77
2024/01/14 12:06:51;;;;;;;40.60;24.83;;;4.00;99.90;;;;;;5061355;28;20448;-77
2024/01/14 12:09:28;;;;;;;37.50;23.60;;;4.10;99.90;;;;;;5059140;28;20507;-76
2024/01/14 12:12:34;;;;;;;36.80;23.87;;;4.00;99.90;;;;;;5051353;28;20476;-78
2024/01/14 12:15:04;;;;;;;34.90;22.90;;;3.90;99.90;;;;;;5041708;28;20472;-77
2024/01/14 12:17:54;;;;;;;35.07;23.73;;;3.40;99.90;;;;;;5064238;28;20468;-77
2024/01/14 12:20:25;;;;;;;37.43;25.47;;;3.60;99.90;;;;;;5063552;28;20523;-77
2024/01/14 12:23:08;;;;;;;37.30;24.03;;;3.70;99.90;;;;;;5041452;28;20528;-79
2024/01/14 12:25:47;;;;;;;36.00;22.90;;;3.80;99.90;;;;;;5055137;28;20461;-76
2024/01/14 12:28:31;;;;;;;34.70;22.30;;;3.70;99.90;;;;;;5059240;28;20524;-78
2024/01/14 12:31:03;;;;;;;37.90;22.57;;;3.80;99.90;;;;;;5063592;28;20456;-79
2024/01/14 12:33:36;;;;;;;33.60;22.70;;;3.70;99.90;;;;;;5061359;28;20508;-77
2024/01/14 12:36:04;;;;;;;36.97;23.53;;;3.70;99.90;;;;;;5049320;28;20451;-77
2024/01/14 12:38:37;;;;;;;34.77;22.13;;;3.60;99.90;;;;;;5059718;28;20507;-77
2024/01/14 12:41:08;;;;;;;33.37;21.63;;;3.70;99.90;;;;;;5060527;28;20529;-78
2024/01/14 12:43:37;;;;;;;33.67;21.63;;;3.50;99.90;;;;;;5062171;28;20466;-77
2024/01/14 12:46:07;;;;;;;33.93;21.60;;;3.50;99.90;;;;;;5063353;28;20524;-78
2024/01/14 12:48:37;;;;;;;35.63;23.87;;;3.30;99.90;;;;;;5063263;28;20445;-77
2024/01/14 12:51:13;;;;;;;35.57;21.37;;;3.30;99.90;;;;;;5055382;28;20445;-79
2024/01/14 12:53:44;;;;;;;33.20;21.50;;;3.40;99.90;;;;;;5060893;28;20474;-78
2024/01/14 12:56:13;;;;;;;34.23;22.10;;;3.30;99.90;;;;;;5047687;28;20458;-77
2024/01/14 12:58:44;;;;;;;36.50;21.50;;;3.40;99.90;;;;;;5062790;28;20522;-78
2024/01/14 13:01:12;;;;;;;35.30;20.60;;;3.30;99.90;;;;;;5060886;28;20456;-76
2024/01/14 13:03:47;;;;;;;33.13;22.30;;;3.30;99.90;;;;;;5060097;28;20896;-78
2024/01/14 13:06:14;;;;;;;45.60;23.40;;;3.40;99.90;;;;;;5052282;28;20438;-77
2024/01/14 13:08:47;;;;;;;31.90;20.57;;;3.50;99.90;;;;;;5058750;28;20449;-77
2024/01/14 13:11:14;;;;;;;34.27;21.70;;;3.60;99.90;;;;;;5059977;28;20450;-77
2024/01/14 13:13:42;;;;;;;37.37;22.50;;;3.40;99.90;;;;;;5051917;28;20501;-77
2024/01/14 13:16:15;;;;;;;35.90;23.00;;;3.40;99.90;;;;;;5054578;28;20439;-79
2024/01/14 13:19:28;;;;;;;33.90;22.07;;;3.20;99.90;;;;;;5060435;28;20457;-80
2024/01/14 13:22:46;;;;;;;36.10;22.80;;;3.30;99.90;;;;;;5022275;28;20474;-81
2024/01/14 13:25:25;;;;;;;37.37;23.47;;;3.30;99.90;;;;;;5005809;28;20468;-82
2024/01/14 13:32:13;;;;;;;34.70;21.37;;;3.50;99.90;;;;;;5040676;28;20462;-80
2024/01/14 13:38:21;;;;;;;34.23;22.20;;;2.80;99.90;;;;;;5048191;28;20460;-79
2024/01/14 13:41:24;;;;;;;35.37;23.27;;;2.80;99.90;;;;;;5061298;28;20444;-79
2024/01/14 13:43:57;;;;;;;34.20;22.07;;;2.70;99.90;;;;;;5061742;28;20461;-80
2024/01/14 13:46:46;;;;;;;32.30;22.17;;;2.90;99.90;;;;;;5051663;28;20449;-79
2024/01/14 13:49:28;;;;;;;36.97;22.90;;;3.00;99.90;;;;;;5061684;28;20479;-80
2024/01/14 13:55:19;;;;;;;36.60;22.83;;;3.10;99.90;;;;;;5059869;28;20507;-79
2024/01/14 13:57:59;;;;;;;35.17;23.37;;;3.10;99.90;;;;;;5059382;28;20456;-79
2024/01/14 14:00:29;;;;;;;32.83;22.33;;;3.10;99.90;;;;;;5060206;28;20457;-79
2024/01/14 14:03:15;;;;;;;39.07;22.23;;;3.10;99.90;;;;;;5062344;28;20799;-79
2024/01/14 14:05:50;;;;;;;37.93;22.63;;;3.00;99.90;;;;;;5061303;28;20863;-78
2024/01/14 14:08:37;;;;;;;33.50;22.20;;;3.00;99.90;;;;;;5061183;28;20441;-78
2024/01/14 14:14:58;;;;;;;;;;;;;;;;;;;;;
2024/01/14 14:17:27;;;;;;;33.80;22.80;;;3.00;99.90;;;;;;5057712;28;20426;-77
2024/01/14 14:20:13;;;;;;;38.43;26.03;;;2.90;99.90;;;;;;5057209;28;20813;-78